Archival Weather

Chicago O'Hare International

Chicago, Illinois (KORD)

Report from: Tuesday, September 19, 2023 10:51 PM CDT
Current time: Friday, June 21, 2024 6:18 PM CDT

Current weather – Weather history – Daily summaries
Weather forecast

Temperature18.3°C (64.9°F)
Dew point13.9°C (57.0°F)
Winds 7 kts (3.6 m/s, 8.1 mph) South-Southeast (160°)
Visibility10 mi. (16.1 km)
Clouds Few clouds 6,500 ft. (1,981 m)
Scattered clouds 11,000 ft. (3,353 m)
Ceiling: Broken clouds 25,000 ft. (7,620 m)
Altimeter29.98 in.Hg (1015 mB)
Relative humidity76 %
Density altitude546 ft. (166 m)
Sea-level pressure101.5 kPa (1015 mB, 29.98 in.Hg)
Remarks Automated weather observing station with precipitation discriminator
Flight conditions Visual Meteorological Conditions
Raw dataKORD 200351Z 16007KT 10SM FEW065 SCT110 BKN250 18/14 A2998 RMK AO2 SLP151 T01830139
An error has occurred. This application may no longer respond until reloaded. Reload 🗙